Karla Faye — 5IM822 — position and weather

sailwx.info

Track history (hours):
 
Tides and Currents Weather Stations Pressure Air Temp Water Temp Dewpoint Dewpoint Depression Visibility Wind Speed Wind Dir Waves Ship Positions

Karla Faye

Last reported at 2018-May-02 11:03 UTC. Time now 2018-Jun-20 09:43 UTC.
Position N 27°47' W 015°09'.
Warning: this ship's position is 48 days out of date.

Length 55 m; draft 4 m.

Type: Fishing. MMSI: 677072200.

Date/timePositionNaut miles runAvg speedWind from/ knotsBaromVisibWave heightAir tempDewpointWater temp
2018-May-02 11:03N 27°47' W 015°09'1 7.9
2018-May-02 10:53N 27°48' W 015°09'3 7.9
2018-May-02 10:30N 27°51' W 015°08'4 7.9
2018-May-02 10:00N 27°55' W 015°06'4 8.0
2018-May-02 09:30N 27°58' W 015°04'4 8.1
2018-May-02 08:59N 28°02' W 015°03'4 8.0
2018-May-02 08:30N 28°06' W 015°01'4 7.9
2018-May-02 08:00N 28°10' W 014°60'4 8.1
2018-May-02 07:30N 28°13' W 014°58'4 8.1
2018-May-02 07:00N 28°17' W 014°57'4 7.9
2018-May-02 06:30N 28°21' W 014°55'4 7.8
2018-May-02 06:00N 28°24' W 014°53'  
2018-Apr-28 15:51N 36°51' W 008°41'3 6.6
2018-Apr-28 15:28N 36°53' W 008°40'3 7.0
2018-Apr-28 14:59N 36°56' W 008°38'3 7.0
2018-Apr-28 14:30N 36°59' W 008°36'3 6.9
2018-Apr-28 14:00N 37°02' W 008°35'3 6.8
2018-Apr-28 13:31N 37°05' W 008°33'0 0.7
2018-Apr-28 12:47N 37°06' W 008°33'0 0.0
2018-Apr-28 12:29N 37°06' W 008°33'0 0.0
2018-Apr-28 11:59N 37°06' W 008°33'0 0.0
2018-Apr-28 11:29N 37°06' W 008°33'0 0.0
2018-Apr-28 10:59N 37°06' W 008°33'0 0.0
2018-Apr-28 10:29N 37°06' W 008°33'0 0.0
2018-Apr-28 09:41N 37°06' W 008°33'0 0.0
2018-Apr-28 09:29N 37°06' W 008°33'0 0.0
2018-Apr-28 08:59N 37°06' W 008°33'0 0.0
2018-Apr-28 08:29N 37°06' W 008°33'0 0.0
2018-Apr-28 07:59N 37°06' W 008°33'0 0.0
2018-Apr-28 07:29N 37°06' W 008°33'0 0.0
2018-Apr-28 06:59N 37°06' W 008°33'0 0.0
2018-Apr-28 06:29N 37°06' W 008°33'0 0.0
2018-Apr-28 05:59N 37°06' W 008°33'0 0.0
2018-Apr-28 05:29N 37°06' W 008°33'0 0.0
2018-Apr-28 04:59N 37°06' W 008°33'0 0.0
2018-Apr-27 16:44N 37°06' W 008°33'0 0.0
2018-Apr-27 16:29N 37°06' W 008°33'0 0.0
2018-Apr-27 15:59N 37°06' W 008°33'0 0.0
2018-Apr-27 15:29N 37°06' W 008°33'0 0.0
2018-Apr-27 14:59N 37°06' W 008°33'0 0.0
2018-Apr-27 14:29N 37°06' W 008°33'0 0.0
2018-Apr-27 13:53N 37°06' W 008°33'0 0.0
2018-Apr-27 13:26N 37°06' W 008°33'0 0.1
2018-Apr-27 12:59N 37°06' W 008°33'0 0.0
2018-Apr-27 12:29N 37°06' W 008°33'0 0.0
2018-Apr-27 11:59N 37°06' W 008°33'0 0.0
2018-Apr-27 11:23N 37°06' W 008°33'0 0.0
2018-Apr-27 10:59N 37°06' W 008°33'0 0.0
2018-Apr-27 10:29N 37°06' W 008°33'0 0.0
2018-Apr-27 09:59N 37°06' W 008°33'0 0.0
2018-Apr-27 09:29N 37°06' W 008°33'0 0.0
2018-Apr-27 08:59N 37°06' W 008°33'0 0.0
2018-Apr-27 08:29N 37°06' W 008°33'0 0.0
2018-Apr-27 07:59N 37°06' W 008°33'0 0.0
2018-Apr-27 06:12N 37°06' W 008°33'1 4.6
2018-Apr-27 06:00N 37°06' W 008°32'1 1.1
2018-Apr-27 04:41N 37°08' W 008°32'0 0.0
2018-Apr-27 03:44N 37°08' W 008°32'0 0.0
2018-Apr-27 03:23N 37°08' W 008°32'0 0.0
2018-Apr-27 02:56N 37°08' W 008°32'0 0.0
2018-Apr-27 02:29N 37°08' W 008°32'0 0.0
2018-Apr-27 01:56N 37°08' W 008°32'0 0.0
2018-Apr-27 01:26N 37°08' W 008°32'0 0.0
2018-Apr-27 00:56N 37°08' W 008°32'0 0.0
2018-Apr-27 00:26N 37°08' W 008°32'0 0.0
2018-Apr-26 23:56N 37°08' W 008°32'0 0.0
2018-Apr-26 23:20N 37°08' W 008°32'0 0.0
2018-Apr-26 22:56N 37°08' W 008°32'0 0.0
2018-Apr-26 22:29N 37°08' W 008°32'0 0.0
2018-Apr-26 21:59N 37°08' W 008°32'0 0.0
2018-Apr-26 21:26N 37°08' W 008°32'0 0.0
2018-Apr-26 20:56N 37°08' W 008°32'0 0.0
2018-Apr-26 20:26N 37°08' W 008°32'0 0.0
2018-Apr-26 19:56N 37°08' W 008°32'0 0.0
2018-Apr-26 19:26N 37°08' W 008°32'0 0.0
2018-Apr-26 18:50N 37°08' W 008°32'0 0.0
2018-Apr-26 18:08N 37°08' W 008°32'0 0.0
2018-Apr-26 17:53N 37°08' W 008°32'0 0.0
2018-Apr-26 17:26N 37°08' W 008°32'0 0.0
2018-Apr-26 16:56N 37°08' W 008°32'0 0.0
2018-Apr-26 16:29N 37°08' W 008°32'0 0.0
2018-Apr-26 15:56N 37°08' W 008°32'0 0.0
2018-Apr-26 15:29N 37°08' W 008°32'0 0.0
2018-Apr-26 14:56N 37°08' W 008°32'0 0.0
2018-Apr-26 14:26N 37°08' W 008°32'0 0.0
2018-Apr-26 13:56N 37°08' W 008°32'0 0.0
2018-Apr-26 13:26N 37°08' W 008°32'0 0.0
2018-Apr-26 12:50N 37°08' W 008°32'0 0.0
2018-Apr-26 12:26N 37°08' W 008°32'0 0.0
2018-Apr-26 11:56N 37°08' W 008°32'0 0.0
2018-Apr-26 11:26N 37°08' W 008°32'0 0.0
2018-Apr-26 10:59N 37°08' W 008°32'0 0.0
2018-Apr-26 10:26N 37°08' W 008°32'0 0.0
2018-Apr-26 09:59N 37°08' W 008°32'0 0.0
2018-Apr-26 09:20N 37°08' W 008°32'0 0.0
2018-Apr-26 08:56N 37°08' W 008°32'0 0.0
2018-Apr-26 08:29N 37°08' W 008°32'0 0.0
2018-Apr-26 07:56N 37°08' W 008°32'0 0.0
2018-Apr-26 07:27N 37°08' W 008°32'2 4.4
2018-Apr-26 07:00N 37°06' W 008°33'0 0.4
2018-Apr-26 06:27N 37°06' W 008°33'0 0.0
2018-Apr-26 05:57N 37°06' W 008°33'0 0.0
2018-Apr-26 05:30N 37°06' W 008°33'0 0.0
2018-Apr-26 04:57N 37°06' W 008°33'0 0.0
2018-Apr-26 02:51N 37°06' W 008°33'0 0.0
2018-Apr-26 02:27N 37°06' W 008°33'0 0.0
2018-Apr-25 23:51N 37°06' W 008°33'0 0.0
2018-Apr-25 22:15N 37°06' W 008°33'0 0.0
2018-Apr-25 21:57N 37°06' W 008°33'0 0.0
2018-Apr-25 21:27N 37°06' W 008°33'0 0.0
2018-Apr-25 20:57N 37°06' W 008°33'0 0.0
2018-Apr-25 20:27N 37°06' W 008°33'0 0.0
2018-Apr-25 19:15N 37°06' W 008°33'0 0.0
2018-Apr-25 19:00N 37°06' W 008°33'0 0.0
2018-Apr-25 04:57N 37°06' W 008°33'0 0.0
2018-Apr-25 04:27N 37°06' W 008°33'0 0.0
2018-Apr-25 03:39N 37°06' W 008°33'0 0.0
2018-Apr-25 03:27N 37°06' W 008°33'0 0.0
2018-Apr-25 02:57N 37°06' W 008°33'0 0.0
2018-Apr-25 02:30N 37°06' W 008°33'0 0.0
2018-Apr-25 01:57N 37°06' W 008°33'0 0.0
2018-Apr-25 01:30N 37°06' W 008°33'0 0.0
2018-Apr-25 00:57N 37°06' W 008°33'0 0.0
2018-Apr-25 00:27N 37°06' W 008°33'0 0.0
2018-Apr-25 00:00N 37°06' W 008°33'0 0.0
2018-Apr-24 22:24N 37°06' W 008°33'0 0.0
2018-Apr-24 21:51N 37°06' W 008°33'0 0.0
2018-Apr-24 21:21N 37°06' W 008°33'0 0.0
2018-Apr-24 20:57N 37°06' W 008°33'0 0.0
2018-Apr-24 20:27N 37°06' W 008°33'0 0.1
2018-Apr-24 19:39N 37°06' W 008°33'0 0.0
2018-Apr-24 19:27N 37°06' W 008°33'0 0.0
2018-Apr-24 18:51N 37°06' W 008°33'0 0.0
2018-Apr-24 18:27N 37°06' W 008°33'0 0.0
2018-Apr-24 18:00N 37°06' W 008°33'0 0.0
2018-Apr-24 17:30N 37°06' W 008°33'0 0.0
2018-Apr-24 16:57N 37°06' W 008°33'0 0.0
2018-Apr-24 16:27N 37°06' W 008°33'0 0.0
2018-Apr-24 15:57N 37°06' W 008°33'0 0.0
2018-Apr-24 15:15N 37°06' W 008°33'0 0.0
2018-Apr-24 14:57N 37°06' W 008°33'0 0.0
2018-Apr-24 14:27N 37°06' W 008°33'0 0.0
2018-Apr-24 13:57N 37°06' W 008°33'0 0.0
2018-Apr-24 13:27N 37°06' W 008°33'0 0.0
2018-Apr-24 12:57N 37°06' W 008°33'0 0.0
2018-Apr-24 12:27N 37°06' W 008°33'0 0.0
2018-Apr-24 11:57N 37°06' W 008°33'0 0.0
2018-Apr-24 11:27N 37°06' W 008°33'0 0.0
2018-Apr-24 10:57N 37°06' W 008°33'0 0.1
2018-Apr-24 10:27N 37°06' W 008°33'0 0.0
2018-Apr-24 10:00N 37°06' W 008°33'0 0.0
2018-Apr-24 09:30N 37°06' W 008°33'0 0.0
2018-Apr-24 09:00N 37°06' W 008°33'0 0.0
2018-Apr-24 08:27N 37°06' W 008°33'0 0.0
2018-Apr-24 07:57N 37°06' W 008°33'0 0.0
2018-Apr-24 07:21N 37°06' W 008°33'0 0.0
2018-Apr-24 06:57N 37°06' W 008°33'0 0.0
2018-Apr-24 05:36N 37°06' W 008°33'0 0.0
2018-Apr-24 05:21N 37°06' W 008°33'0 0.0
2018-Apr-24 04:57N 37°06' W 008°33'0 0.0
2018-Apr-24 04:27N 37°06' W 008°33'0 0.0
2018-Apr-24 03:57N 37°06' W 008°33'0 0.0
2018-Apr-24 03:21N 37°06' W 008°33'0 0.0
2018-Apr-24 02:57N 37°06' W 008°33'0 0.0
2018-Apr-24 02:27N 37°06' W 008°33'0 0.0
2018-Apr-24 02:00N 37°06' W 008°33'0 0.0
2018-Apr-24 01:27N 37°06' W 008°33'0 0.0
2018-Apr-24 00:57N 37°06' W 008°33'0 0.0
2018-Apr-24 00:27N 37°06' W 008°33'0 0.0
2018-Apr-23 23:57N 37°06' W 008°33'0 0.0
2018-Apr-23 23:27N 37°06' W 008°33'0 0.0
2018-Apr-23 22:51N 37°06' W 008°33'0 0.0
2018-Apr-23 22:27N 37°06' W 008°33'0 0.0
2018-Apr-23 21:51N 37°06' W 008°33'0 0.0
2018-Apr-23 21:30N 37°06' W 008°33'0 0.0
2018-Apr-23 21:00N 37°06' W 008°33'0 0.0
2018-Apr-23 20:30N 37°06' W 008°33'0 0.0
2018-Apr-23 19:57N 37°06' W 008°33'0 0.0
2018-Apr-23 19:27N 37°06' W 008°33'0 0.0
2018-Apr-23 18:57N 37°06' W 008°33'0 0.0
2018-Apr-23 18:27N 37°06' W 008°33'0 0.0
2018-Apr-23 17:57N 37°06' W 008°33'0 0.0
2018-Apr-23 17:21N 37°06' W 008°33'0 0.0
2018-Apr-23 16:57N 37°06' W 008°33'0 0.0
2018-Apr-23 16:27N 37°06' W 008°33'0 0.0
2018-Apr-23 16:00N 37°06' W 008°33'0 0.0
2018-Apr-23 15:27N 37°06' W 008°33'0 0.0
2018-Apr-23 14:57N 37°06' W 008°33'0 0.0
2018-Apr-23 14:27N 37°06' W 008°33'0 0.0
2018-Apr-23 13:51N 37°06' W 008°33'0 0.0
2018-Apr-23 13:30N 37°06' W 008°33'0 0.0
2018-Apr-23 12:57N 37°06' W 008°33'0 0.0
2018-Apr-23 12:27N 37°06' W 008°33'0 0.0
2018-Apr-23 11:57N 37°06' W 008°33'0 0.0
2018-Apr-23 11:09N 37°06' W 008°33'0 0.0
2018-Apr-23 10:57N 37°06' W 008°33'0 0.0
2018-Apr-23 10:27N 37°06' W 008°33'0 0.0
2018-Apr-23 09:51N 37°06' W 008°33'0 0.0
2018-Apr-23 09:21N 37°06' W 008°33'0 0.0
2018-Apr-23 09:00N 37°06' W 008°33'0 0.0
2018-Apr-23 08:21N 37°06' W 008°33'0 0.0
2018-Apr-23 07:51N 37°06' W 008°33'0 0.0
2018-Apr-23 07:27N 37°06' W 008°33'0 0.0
2018-Apr-23 06:42N 37°06' W 008°33'0 0.0
2018-Apr-23 05:09N 37°06' W 008°33'0 0.0
2018-Apr-22 23:15N 37°06' W 008°33'0 0.0
2018-Apr-22 22:57N 37°06' W 008°33'0 0.0
2018-Apr-22 22:27N 37°06' W 008°33'0 0.0
2018-Apr-22 21:57N 37°06' W 008°33'0 0.0
2018-Apr-22 21:21N 37°06' W 008°33'0 0.0
2018-Apr-22 20:57N 37°06' W 008°33'0 0.0
2018-Apr-22 20:30N 37°06' W 008°33'0 0.0
2018-Apr-22 20:00N 37°06' W 008°33'0 0.0
2018-Apr-22 19:27N 37°06' W 008°33'0 0.0
2018-Apr-22 18:51N 37°06' W 008°33'0 0.0
2018-Apr-22 18:27N 37°06' W 008°33'0 0.0
2018-Apr-22 17:57N 37°06' W 008°33'0 0.0
2018-Apr-22 17:27N 37°06' W 008°33'0 0.0
2018-Apr-22 17:00N 37°06' W 008°33'0 0.0
2018-Apr-22 16:27N 37°06' W 008°33'0 0.0
2018-Apr-22 15:57N 37°06' W 008°33'0 0.0
2018-Apr-22 15:27N 37°06' W 008°33'0 0.0
2018-Apr-22 14:57N 37°06' W 008°33'0 0.0
2018-Apr-22 14:27N 37°06' W 008°33'0 0.0
2018-Apr-22 14:00N 37°06' W 008°33'0 0.0
2018-Apr-22 13:27N 37°06' W 008°33'0 0.0
2018-Apr-22 12:57N 37°06' W 008°33'0 0.0
2018-Apr-22 12:27N 37°06' W 008°33'0 0.0
2018-Apr-22 11:57N 37°06' W 008°33'0 0.0
2018-Apr-22 11:27N 37°06' W 008°33'  
Track history (hours):
 
Tides and Currents Weather Stations Pressure Air Temp Water Temp Dewpoint Dewpoint Depression Visibility Wind Speed Wind Dir Waves Ship Positions

Karla Faye

Last reported at 2018-May-02 11:03 UTC. Time now 2018-Jun-20 09:43 UTC.
Position N 27°47' W 015°09'.
Warning: this ship's position is 48 days out of date.

Length 55 m; draft 4 m.

Type: Fishing. MMSI: 677072200.

Date/timePositionNaut miles runAvg speedWind from/ knotsBaromVisibWave heightAir tempDewpointWater temp
2018-May-02 11:03N 27°47' W 015°09'1 7.9
2018-May-02 10:53N 27°48' W 015°09'3 7.9
2018-May-02 10:30N 27°51' W 015°08'4 7.9
2018-May-02 10:00N 27°55' W 015°06'4 8.0
2018-May-02 09:30N 27°58' W 015°04'4 8.1
2018-May-02 08:59N 28°02' W 015°03'4 8.0
2018-May-02 08:30N 28°06' W 015°01'4 7.9
2018-May-02 08:00N 28°10' W 014°60'4 8.1
2018-May-02 07:30N 28°13' W 014°58'4 8.1
2018-May-02 07:00N 28°17' W 014°57'4 7.9
2018-May-02 06:30N 28°21' W 014°55'4 7.8
2018-May-02 06:00N 28°24' W 014°53'  
2018-Apr-28 15:51N 36°51' W 008°41'3 6.6
2018-Apr-28 15:28N 36°53' W 008°40'3 7.0
2018-Apr-28 14:59N 36°56' W 008°38'3 7.0
2018-Apr-28 14:30N 36°59' W 008°36'3 6.9
2018-Apr-28 14:00N 37°02' W 008°35'3 6.8
2018-Apr-28 13:31N 37°05' W 008°33'0 0.7
2018-Apr-28 12:47N 37°06' W 008°33'0 0.0
2018-Apr-28 12:29N 37°06' W 008°33'0 0.0
2018-Apr-28 11:59N 37°06' W 008°33'0 0.0
2018-Apr-28 11:29N 37°06' W 008°33'0 0.0
2018-Apr-28 10:59N 37°06' W 008°33'0 0.0
2018-Apr-28 10:29N 37°06' W 008°33'0 0.0
2018-Apr-28 09:41N 37°06' W 008°33'0 0.0
2018-Apr-28 09:29N 37°06' W 008°33'0 0.0
2018-Apr-28 08:59N 37°06' W 008°33'0 0.0
2018-Apr-28 08:29N 37°06' W 008°33'0 0.0
2018-Apr-28 07:59N 37°06' W 008°33'0 0.0
2018-Apr-28 07:29N 37°06' W 008°33'0 0.0
2018-Apr-28 06:59N 37°06' W 008°33'0 0.0
2018-Apr-28 06:29N 37°06' W 008°33'0 0.0
2018-Apr-28 05:59N 37°06' W 008°33'0 0.0
2018-Apr-28 05:29N 37°06' W 008°33'0 0.0
2018-Apr-28 04:59N 37°06' W 008°33'0 0.0
2018-Apr-27 16:44N 37°06' W 008°33'0 0.0
2018-Apr-27 16:29N 37°06' W 008°33'0 0.0
2018-Apr-27 15:59N 37°06' W 008°33'0 0.0
2018-Apr-27 15:29N 37°06' W 008°33'0 0.0
2018-Apr-27 14:59N 37°06' W 008°33'0 0.0
2018-Apr-27 14:29N 37°06' W 008°33'0 0.0
2018-Apr-27 13:53N 37°06' W 008°33'0 0.0
2018-Apr-27 13:26N 37°06' W 008°33'0 0.1
2018-Apr-27 12:59N 37°06' W 008°33'0 0.0
2018-Apr-27 12:29N 37°06' W 008°33'0 0.0
2018-Apr-27 11:59N 37°06' W 008°33'0 0.0
2018-Apr-27 11:23N 37°06' W 008°33'0 0.0
2018-Apr-27 10:59N 37°06' W 008°33'0 0.0
2018-Apr-27 10:29N 37°06' W 008°33'0 0.0
2018-Apr-27 09:59N 37°06' W 008°33'0 0.0
2018-Apr-27 09:29N 37°06' W 008°33'0 0.0
2018-Apr-27 08:59N 37°06' W 008°33'0 0.0
2018-Apr-27 08:29N 37°06' W 008°33'0 0.0
2018-Apr-27 07:59N 37°06' W 008°33'0 0.0
2018-Apr-27 06:12N 37°06' W 008°33'1 4.6
2018-Apr-27 06:00N 37°06' W 008°32'1 1.1
2018-Apr-27 04:41N 37°08' W 008°32'0 0.0
2018-Apr-27 03:44N 37°08' W 008°32'0 0.0
2018-Apr-27 03:23N 37°08' W 008°32'0 0.0
2018-Apr-27 02:56N 37°08' W 008°32'0 0.0
2018-Apr-27 02:29N 37°08' W 008°32'0 0.0
2018-Apr-27 01:56N 37°08' W 008°32'0 0.0
2018-Apr-27 01:26N 37°08' W 008°32'0 0.0
2018-Apr-27 00:56N 37°08' W 008°32'0 0.0
2018-Apr-27 00:26N 37°08' W 008°32'0 0.0
2018-Apr-26 23:56N 37°08' W 008°32'0 0.0
2018-Apr-26 23:20N 37°08' W 008°32'0 0.0
2018-Apr-26 22:56N 37°08' W 008°32'0 0.0
2018-Apr-26 22:29N 37°08' W 008°32'0 0.0
2018-Apr-26 21:59N 37°08' W 008°32'0 0.0
2018-Apr-26 21:26N 37°08' W 008°32'0 0.0
2018-Apr-26 20:56N 37°08' W 008°32'0 0.0
2018-Apr-26 20:26N 37°08' W 008°32'0 0.0
2018-Apr-26 19:56N 37°08' W 008°32'0 0.0
2018-Apr-26 19:26N 37°08' W 008°32'0 0.0
2018-Apr-26 18:50N 37°08' W 008°32'0 0.0
2018-Apr-26 18:08N 37°08' W 008°32'0 0.0
2018-Apr-26 17:53N 37°08' W 008°32'0 0.0
2018-Apr-26 17:26N 37°08' W 008°32'0 0.0
2018-Apr-26 16:56N 37°08' W 008°32'0 0.0
2018-Apr-26 16:29N 37°08' W 008°32'0 0.0
2018-Apr-26 15:56N 37°08' W 008°32'0 0.0
2018-Apr-26 15:29N 37°08' W 008°32'0 0.0
2018-Apr-26 14:56N 37°08' W 008°32'0 0.0
2018-Apr-26 14:26N 37°08' W 008°32'0 0.0
2018-Apr-26 13:56N 37°08' W 008°32'0 0.0
2018-Apr-26 13:26N 37°08' W 008°32'0 0.0
2018-Apr-26 12:50N 37°08' W 008°32'0 0.0
2018-Apr-26 12:26N 37°08' W 008°32'0 0.0
2018-Apr-26 11:56N 37°08' W 008°32'0 0.0
2018-Apr-26 11:26N 37°08' W 008°32'0 0.0
2018-Apr-26 10:59N 37°08' W 008°32'0 0.0
2018-Apr-26 10:26N 37°08' W 008°32'0 0.0
2018-Apr-26 09:59N 37°08' W 008°32'0 0.0
2018-Apr-26 09:20N 37°08' W 008°32'0 0.0
2018-Apr-26 08:56N 37°08' W 008°32'0 0.0
2018-Apr-26 08:29N 37°08' W 008°32'0 0.0
2018-Apr-26 07:56N 37°08' W 008°32'0 0.0
2018-Apr-26 07:27N 37°08' W 008°32'2 4.4
2018-Apr-26 07:00N 37°06' W 008°33'0 0.4
2018-Apr-26 06:27N 37°06' W 008°33'0 0.0
2018-Apr-26 05:57N 37°06' W 008°33'0 0.0
2018-Apr-26 05:30N 37°06' W 008°33'0 0.0
2018-Apr-26 04:57N 37°06' W 008°33'0 0.0
2018-Apr-26 02:51N 37°06' W 008°33'0 0.0
2018-Apr-26 02:27N 37°06' W 008°33'0 0.0
2018-Apr-25 23:51N 37°06' W 008°33'0 0.0
2018-Apr-25 22:15N 37°06' W 008°33'0 0.0
2018-Apr-25 21:57N 37°06' W 008°33'0 0.0
2018-Apr-25 21:27N 37°06' W 008°33'0 0.0
2018-Apr-25 20:57N 37°06' W 008°33'0 0.0
2018-Apr-25 20:27N 37°06' W 008°33'0 0.0
2018-Apr-25 19:15N 37°06' W 008°33'0 0.0
2018-Apr-25 19:00N 37°06' W 008°33'0 0.0
2018-Apr-25 04:57N 37°06' W 008°33'0 0.0
2018-Apr-25 04:27N 37°06' W 008°33'0 0.0
2018-Apr-25 03:39N 37°06' W 008°33'0 0.0
2018-Apr-25 03:27N 37°06' W 008°33'0 0.0
2018-Apr-25 02:57N 37°06' W 008°33'0 0.0
2018-Apr-25 02:30N 37°06' W 008°33'0 0.0
2018-Apr-25 01:57N 37°06' W 008°33'0 0.0
2018-Apr-25 01:30N 37°06' W 008°33'0 0.0
2018-Apr-25 00:57N 37°06' W 008°33'0 0.0
2018-Apr-25 00:27N 37°06' W 008°33'0 0.0
2018-Apr-25 00:00N 37°06' W 008°33'0 0.0
2018-Apr-24 22:24N 37°06' W 008°33'0 0.0
2018-Apr-24 21:51N 37°06' W 008°33'0 0.0
2018-Apr-24 21:21N 37°06' W 008°33'0 0.0
2018-Apr-24 20:57N 37°06' W 008°33'0 0.0
2018-Apr-24 20:27N 37°06' W 008°33'0 0.1
2018-Apr-24 19:39N 37°06' W 008°33'0 0.0
2018-Apr-24 19:27N 37°06' W 008°33'0 0.0
2018-Apr-24 18:51N 37°06' W 008°33'0 0.0
2018-Apr-24 18:27N 37°06' W 008°33'0 0.0
2018-Apr-24 18:00N 37°06' W 008°33'0 0.0
2018-Apr-24 17:30N 37°06' W 008°33'0 0.0
2018-Apr-24 16:57N 37°06' W 008°33'0 0.0
2018-Apr-24 16:27N 37°06' W 008°33'0 0.0
2018-Apr-24 15:57N 37°06' W 008°33'0 0.0
2018-Apr-24 15:15N 37°06' W 008°33'0 0.0
2018-Apr-24 14:57N 37°06' W 008°33'0 0.0
2018-Apr-24 14:27N 37°06' W 008°33'0 0.0
2018-Apr-24 13:57N 37°06' W 008°33'0 0.0
2018-Apr-24 13:27N 37°06' W 008°33'0 0.0
2018-Apr-24 12:57N 37°06' W 008°33'0 0.0
2018-Apr-24 12:27N 37°06' W 008°33'0 0.0
2018-Apr-24 11:57N 37°06' W 008°33'0 0.0
2018-Apr-24 11:27N 37°06' W 008°33'0 0.0
2018-Apr-24 10:57N 37°06' W 008°33'0 0.1
2018-Apr-24 10:27N 37°06' W 008°33'0 0.0
2018-Apr-24 10:00N 37°06' W 008°33'0 0.0
2018-Apr-24 09:30N 37°06' W 008°33'0 0.0
2018-Apr-24 09:00N 37°06' W 008°33'0 0.0
2018-Apr-24 08:27N 37°06' W 008°33'0 0.0
2018-Apr-24 07:57N 37°06' W 008°33'0 0.0
2018-Apr-24 07:21N 37°06' W 008°33'0 0.0
2018-Apr-24 06:57N 37°06' W 008°33'0 0.0
2018-Apr-24 05:36N 37°06' W 008°33'0 0.0
2018-Apr-24 05:21N 37°06' W 008°33'0 0.0
2018-Apr-24 04:57N 37°06' W 008°33'0 0.0
2018-Apr-24 04:27N 37°06' W 008°33'0 0.0
2018-Apr-24 03:57N 37°06' W 008°33'0 0.0
2018-Apr-24 03:21N 37°06' W 008°33'0 0.0
2018-Apr-24 02:57N 37°06' W 008°33'0 0.0
2018-Apr-24 02:27N 37°06' W 008°33'0 0.0
2018-Apr-24 02:00N 37°06' W 008°33'0 0.0
2018-Apr-24 01:27N 37°06' W 008°33'0 0.0
2018-Apr-24 00:57N 37°06' W 008°33'0 0.0
2018-Apr-24 00:27N 37°06' W 008°33'0 0.0
2018-Apr-23 23:57N 37°06' W 008°33'0 0.0
2018-Apr-23 23:27N 37°06' W 008°33'0 0.0
2018-Apr-23 22:51N 37°06' W 008°33'0 0.0
2018-Apr-23 22:27N 37°06' W 008°33'0 0.0
2018-Apr-23 21:51N 37°06' W 008°33'0 0.0
2018-Apr-23 21:30N 37°06' W 008°33'0 0.0
2018-Apr-23 21:00N 37°06' W 008°33'0 0.0
2018-Apr-23 20:30N 37°06' W 008°33'0 0.0
2018-Apr-23 19:57N 37°06' W 008°33'0 0.0
2018-Apr-23 19:27N 37°06' W 008°33'0 0.0
2018-Apr-23 18:57N 37°06' W 008°33'0 0.0
2018-Apr-23 18:27N 37°06' W 008°33'0 0.0
2018-Apr-23 17:57N 37°06' W 008°33'0 0.0
2018-Apr-23 17:21N 37°06' W 008°33'0 0.0
2018-Apr-23 16:57N 37°06' W 008°33'0 0.0
2018-Apr-23 16:27N 37°06' W 008°33'0 0.0
2018-Apr-23 16:00N 37°06' W 008°33'0 0.0
2018-Apr-23 15:27N 37°06' W 008°33'0 0.0
2018-Apr-23 14:57N 37°06' W 008°33'0 0.0
2018-Apr-23 14:27N 37°06' W 008°33'0 0.0
2018-Apr-23 13:51N 37°06' W 008°33'0 0.0
2018-Apr-23 13:30N 37°06' W 008°33'0 0.0
2018-Apr-23 12:57N 37°06' W 008°33'0 0.0
2018-Apr-23 12:27N 37°06' W 008°33'0 0.0
2018-Apr-23 11:57N 37°06' W 008°33'0 0.0
2018-Apr-23 11:09N 37°06' W 008°33'0 0.0
2018-Apr-23 10:57N 37°06' W 008°33'0 0.0
2018-Apr-23 10:27N 37°06' W 008°33'0 0.0
2018-Apr-23 09:51N 37°06' W 008°33'0 0.0
2018-Apr-23 09:21N 37°06' W 008°33'0 0.0
2018-Apr-23 09:00N 37°06' W 008°33'0 0.0
2018-Apr-23 08:21N 37°06' W 008°33'0 0.0
2018-Apr-23 07:51N 37°06' W 008°33'0 0.0
2018-Apr-23 07:27N 37°06' W 008°33'0 0.0
2018-Apr-23 06:42N 37°06' W 008°33'0 0.0
2018-Apr-23 05:09N 37°06' W 008°33'0 0.0
2018-Apr-22 23:15N 37°06' W 008°33'0 0.0
2018-Apr-22 22:57N 37°06' W 008°33'0 0.0
2018-Apr-22 22:27N 37°06' W 008°33'0 0.0
2018-Apr-22 21:57N 37°06' W 008°33'0 0.0
2018-Apr-22 21:21N 37°06' W 008°33'0 0.0
2018-Apr-22 20:57N 37°06' W 008°33'0 0.0
2018-Apr-22 20:30N 37°06' W 008°33'0 0.0
2018-Apr-22 20:00N 37°06' W 008°33'0 0.0
2018-Apr-22 19:27N 37°06' W 008°33'0 0.0
2018-Apr-22 18:51N 37°06' W 008°33'0 0.0
2018-Apr-22 18:27N 37°06' W 008°33'0 0.0
2018-Apr-22 17:57N 37°06' W 008°33'0 0.0
2018-Apr-22 17:27N 37°06' W 008°33'0 0.0
2018-Apr-22 17:00N 37°06' W 008°33'0 0.0
2018-Apr-22 16:27N 37°06' W 008°33'0 0.0
2018-Apr-22 15:57N 37°06' W 008°33'0 0.0
2018-Apr-22 15:27N 37°06' W 008°33'0 0.0
2018-Apr-22 14:57N 37°06' W 008°33'0 0.0
2018-Apr-22 14:27N 37°06' W 008°33'0 0.0
2018-Apr-22 14:00N 37°06' W 008°33'0 0.0
2018-Apr-22 13:27N 37°06' W 008°33'0 0.0
2018-Apr-22 12:57N 37°06' W 008°33'0 0.0
2018-Apr-22 12:27N 37°06' W 008°33'0 0.0
2018-Apr-22 11:57N 37°06' W 008°33'0 0.0
2018-Apr-22 11:27N 37°06' W 008°33'  

Dump ship's entire track history